KDOV/DOV METAR and TAF weather

Enter ICAO airport designator
Station Type Date Time Source
KDOV METAR 2020/10/29 16:56 UTC NOAA

KDOV 291656Z 13010KT 7SM -RA BKN004 BKN010 OVC016 18/18 A2962 RMK AO2A SLP033 P0010 T01800180 $


Station Type Date Time Source
KDOV Decoded METAR 2020/10/29 16:56 UTC NOAA

Dover Air Force Base, DE, United States (KDOV) 39-08N 075-28W
Oct 29, 2020 - 12:56 PM EDT / 2020.10.29 1656 UTC
Wind: from the SE (130 degrees) at 12 MPH (10 KT):0
Visibility: 7 mile(s):0
Sky conditions: overcast
Weather: light rain
Precipitation last hour: 0.10 inches
Temperature: 64.4 F (18.0 C)
Dew Point: 64.4 F (18.0 C)
Relative Humidity: 100%
Pressure (altimeter): 29.62 in. Hg (1003 hPa)
ob: KDOV 291656Z 13010KT 7SM -RA BKN004 BKN010 OVC016 18/18 A2962 RMK AO2A SLP033 P0010 T01800180
cycle: 17

Station Type Date Time Source
KDOV TAF 2020/10/29 16:57 UTC NOAA

TAF TAF KDOV 291600Z 2916/3022 12012G20KT 8000 -RA OVC009 QNH2932INS
TEMPO 2916/2920 BKN005
BECMG 2919/2920 13015G25KT 4800 RA OVC009 QNH2926INS
BECMG 2921/2922 24012G20KT 8000 -RA OVC009 QNH2929INS
BECMG 2922/2923 28025G30KT 9999 -RA OVC009 520008 QNH2938INS
TEMPO 2923/3001 28035G45KT
BECMG 3000/3001 33012KT 4800 -RA BR OVC009 QNH2950INS
BECMG 3006/3007 02012G20KT 4800 -RA BR OVC010 QNH2954INS
TEMPO 3011/3013 36015G25KT 3200 RA BKN006 OVC010
BECMG 3012/3013 36012G20KT 8000 -RA OVC020 QNH2977INS
BECMG 3015/3016 36015G25KT 9999 NSW BKN015 QNH2984INS TX18/2919Z TN11/3008Z

Example: see airport list